createdAt,value
2017-04-19T00:00:31.894Z,1024.57
2017-04-19T00:01:12.506Z,1024.62
2017-04-19T00:01:53.160Z,1024.61
2017-04-19T00:02:33.760Z,1024.66
2017-04-19T00:03:14.337Z,1024.6
2017-04-19T00:03:54.935Z,1024.59
2017-04-19T00:04:35.538Z,1024.62
2017-04-19T00:05:16.124Z,1024.61
2017-04-19T00:05:56.702Z,1024.61
2017-04-19T00:06:37.299Z,1024.58
2017-04-19T00:07:17.899Z,1024.6
2017-04-19T00:07:58.466Z,1024.59
2017-04-19T00:08:39.075Z,1024.59
2017-04-19T00:09:19.665Z,1024.57
2017-04-19T00:10:00.245Z,1024.57
2017-04-19T00:10:40.839Z,1024.62
2017-04-19T00:11:21.416Z,1024.57
2017-04-19T00:12:02.032Z,1024.62
2017-04-19T00:12:42.634Z,1024.57
2017-04-19T00:13:23.226Z,1024.6
2017-04-19T00:14:03.858Z,1024.65
2017-04-19T00:14:44.459Z,1024.62
2017-04-19T00:15:25.053Z,1024.62
2017-04-19T00:16:05.637Z,1024.59
2017-04-19T00:16:46.226Z,1024.64
2017-04-19T00:17:26.798Z,1024.62
2017-04-19T00:18:07.411Z,1024.68
2017-04-19T00:18:48.018Z,1024.62
2017-04-19T00:19:28.627Z,1024.68
2017-04-19T00:20:09.219Z,1024.63
2017-04-19T00:20:49.808Z,1024.64
2017-04-19T00:21:30.383Z,1024.6
2017-04-19T00:22:10.976Z,1024.64
2017-04-19T00:22:51.573Z,1024.66
2017-04-19T00:23:32.175Z,1024.68
2017-04-19T00:24:12.810Z,1024.68
2017-04-19T00:24:53.435Z,1024.63
2017-04-19T00:25:34.034Z,1024.66
2017-04-19T00:26:14.647Z,1024.65
2017-04-19T00:26:55.251Z,1024.68
2017-04-19T00:27:35.842Z,1024.7
2017-04-19T00:28:16.463Z,1024.63
2017-04-19T00:28:57.065Z,1024.65
2017-04-19T00:29:37.740Z,1024.66
2017-04-19T00:30:18.330Z,1024.66
2017-04-19T00:30:58.954Z,1024.59
2017-04-19T00:31:39.562Z,1024.65
2017-04-19T00:32:20.162Z,1024.62
2017-04-19T00:33:00.851Z,1024.7
2017-04-19T00:33:41.456Z,1024.65
2017-04-19T00:34:22.088Z,1024.73
2017-04-19T00:35:02.694Z,1024.76
2017-04-19T00:35:43.277Z,1024.73
2017-04-19T00:36:23.867Z,1024.71
2017-04-19T00:37:04.528Z,1024.71
2017-04-19T00:37:45.100Z,1024.74
2017-04-19T00:38:25.700Z,1024.71
2017-04-19T00:39:06.313Z,1024.71
2017-04-19T00:39:46.911Z,1024.69
2017-04-19T00:40:27.536Z,1024.77
2017-04-19T00:41:08.204Z,1024.75
2017-04-19T00:41:48.807Z,1024.8
2017-04-19T00:42:29.402Z,1024.79
2017-04-19T00:43:10.024Z,1024.76
2017-04-19T00:43:50.643Z,1024.75
2017-04-19T00:44:31.240Z,1024.8
2017-04-19T00:45:11.815Z,1024.72
2017-04-19T00:45:52.407Z,1024.77
2017-04-19T00:46:32.987Z,1024.78
2017-04-19T00:47:13.588Z,1024.78
2017-04-19T00:47:54.230Z,1024.79
2017-04-19T00:48:34.802Z,1024.81
2017-04-19T00:49:15.386Z,1024.82
2017-04-19T00:49:55.980Z,1024.88
2017-04-19T00:50:36.580Z,1024.81
2017-04-19T00:51:17.212Z,1024.82
2017-04-19T00:51:57.790Z,1024.83
2017-04-19T00:52:38.368Z,1024.86
2017-04-19T00:53:18.977Z,1024.84
2017-04-19T00:53:59.577Z,1024.89
2017-04-19T00:54:40.159Z,1024.83
2017-04-19T00:55:20.759Z,1024.93
2017-04-19T00:56:01.338Z,1024.82
2017-04-19T00:56:41.915Z,1024.96
2017-04-19T00:57:22.507Z,1024.93
2017-04-19T00:58:03.107Z,1024.89
2017-04-19T00:58:43.713Z,1024.94
2017-04-19T00:59:24.334Z,1024.95
2017-04-19T01:00:04.916Z,1024.94
2017-04-19T01:00:45.505Z,1024.95
2017-04-19T01:01:26.113Z,1025
2017-04-19T01:02:06.732Z,1024.97
2017-04-19T01:02:47.333Z,1024.96
2017-04-19T01:03:27.970Z,1025.01
2017-04-19T01:04:08.558Z,1024.97
2017-04-19T01:04:49.171Z,1024.98
2017-04-19T01:05:29.766Z,1025.02
2017-04-19T01:06:10.352Z,1024.99
2017-04-19T01:06:50.999Z,1025.07
2017-04-19T01:07:31.584Z,1025.02
2017-04-19T01:08:12.166Z,1025.05
2017-04-19T01:08:52.790Z,1025.03
2017-04-19T01:09:33.382Z,1025.05
2017-04-19T01:10:13.975Z,1025.06
2017-04-19T01:10:54.577Z,1025.07
2017-04-19T01:11:35.139Z,1025.07
2017-04-19T01:12:15.725Z,1025.05
2017-04-19T01:12:56.322Z,1025.03
2017-04-19T01:13:36.898Z,1025.07
2017-04-19T01:14:17.505Z,1025.09
2017-04-19T01:14:58.087Z,1025.02
2017-04-19T01:15:38.684Z,1025.11
2017-04-19T01:16:19.275Z,1025.16
2017-04-19T01:17:00.001Z,1025.02
2017-04-19T01:17:40.591Z,1025.13
2017-04-19T01:18:21.162Z,1025.11
2017-04-19T01:19:01.755Z,1025.12
2017-04-19T01:19:42.351Z,1025.12
2017-04-19T01:20:22.925Z,1025.11
2017-04-19T01:21:03.524Z,1025.11
2017-04-19T01:21:44.149Z,1025.13
2017-04-19T01:22:24.749Z,1025.13
2017-04-19T01:23:05.396Z,1025.22
2017-04-19T01:23:45.922Z,1025.16
2017-04-19T01:24:26.535Z,1025.13
2017-04-19T01:25:07.134Z,1025.18
2017-04-19T01:25:47.760Z,1025.17
2017-04-19T01:26:28.393Z,1025.22
2017-04-19T01:27:08.969Z,1025.14
2017-04-19T01:27:49.577Z,1025.18
2017-04-19T01:28:30.173Z,1025.18
2017-04-19T01:29:10.777Z,1025.23
2017-04-19T01:29:51.396Z,1025.17
2017-04-19T01:30:31.999Z,1025.18
2017-04-19T01:31:12.612Z,1025.16
2017-04-19T01:31:53.182Z,1025.23
2017-04-19T01:32:33.758Z,1025.17
2017-04-19T01:33:14.345Z,1025.13
2017-04-19T01:33:54.962Z,1025.16
2017-04-19T01:34:35.549Z,1025.16
2017-04-19T01:35:16.189Z,1025.18
2017-04-19T01:35:56.766Z,1025.21
2017-04-19T01:36:37.368Z,1025.16
2017-04-19T01:37:18.380Z,1025.17
2017-04-19T01:37:58.964Z,1025.18
2017-04-19T01:38:39.529Z,1025.16
2017-04-19T01:39:20.222Z,1025.18
2017-04-19T01:40:00.836Z,1025.22
2017-04-19T01:40:41.427Z,1025.17
2017-04-19T01:41:22.013Z,1025.18
2017-04-19T01:42:02.629Z,1025.18
2017-04-19T01:42:43.191Z,1025.23
2017-04-19T01:43:23.796Z,1025.2
2017-04-19T01:44:04.383Z,1025.2
2017-04-19T01:44:44.973Z,1025.21
2017-04-19T01:45:25.557Z,1025.2
2017-04-19T01:46:06.146Z,1025.24
2017-04-19T01:46:46.752Z,1025.23
2017-04-19T01:47:27.358Z,1025.25
2017-04-19T01:48:07.959Z,1025.18
2017-04-19T01:48:48.566Z,1025.19
2017-04-19T01:49:29.166Z,1025.15
2017-04-19T01:50:09.762Z,1025.22
2017-04-19T01:50:50.389Z,1025.21
2017-04-19T01:51:30.963Z,1025.23
2017-04-19T01:52:11.549Z,1025.24
2017-04-19T01:52:52.147Z,1025.23
2017-04-19T01:53:32.721Z,1025.22
2017-04-19T01:54:13.289Z,1025.19
2017-04-19T01:54:53.873Z,1025.24
2017-04-19T01:55:34.475Z,1025.21
2017-04-19T01:56:15.047Z,1025.22
2017-04-19T01:56:55.627Z,1025.15
2017-04-19T01:57:36.314Z,1025.25
2017-04-19T01:58:16.895Z,1025.19
2017-04-19T01:58:57.512Z,1025.22
2017-04-19T01:59:38.081Z,1025.21
2017-04-19T02:00:18.646Z,1025.22
2017-04-19T02:00:59.235Z,1025.24
2017-04-19T02:01:39.793Z,1025.22
2017-04-19T02:02:20.400Z,1025.24
2017-04-19T02:03:00.977Z,1025.24
2017-04-19T02:03:41.573Z,1025.27
2017-04-19T02:04:22.210Z,1025.25
2017-04-19T02:05:02.789Z,1025.28
2017-04-19T02:05:43.399Z,1025.25
2017-04-19T02:06:23.984Z,1025.28
2017-04-19T02:07:04.587Z,1025.23
2017-04-19T02:07:45.215Z,1025.27
2017-04-19T02:08:25.851Z,1025.25
2017-04-19T02:09:06.438Z,1025.31
2017-04-19T02:09:47.012Z,1025.29
2017-04-19T02:10:27.576Z,1025.27
2017-04-19T02:11:08.188Z,1025.25
2017-04-19T02:11:48.788Z,1025.3
2017-04-19T02:12:29.384Z,1025.27
2017-04-19T02:13:10.012Z,1025.31
2017-04-19T02:13:50.586Z,1025.33
2017-04-19T02:14:31.159Z,1025.25
2017-04-19T02:15:11.750Z,1025.3
2017-04-19T02:15:52.351Z,1025.27
2017-04-19T02:16:32.951Z,1025.35
2017-04-19T02:17:13.534Z,1025.33
2017-04-19T02:17:54.112Z,1025.3
2017-04-19T02:18:34.690Z,1025.29
2017-04-19T02:19:15.309Z,1025.39
2017-04-19T02:19:55.909Z,1025.31
2017-04-19T02:20:36.506Z,1025.36
2017-04-19T02:21:17.093Z,1025.34
2017-04-19T02:21:57.719Z,1025.38
2017-04-19T02:22:38.315Z,1025.36
2017-04-19T02:23:18.914Z,1025.37
2017-04-19T02:23:59.502Z,1025.38
2017-04-19T02:24:40.078Z,1025.35
2017-04-19T02:25:20.656Z,1025.37
2017-04-19T02:26:01.232Z,1025.4
2017-04-19T02:26:41.827Z,1025.38
2017-04-19T02:27:22.435Z,1025.38
2017-04-19T02:28:03.030Z,1025.38
2017-04-19T02:28:43.617Z,1025.4
2017-04-19T02:29:24.204Z,1025.44
2017-04-19T02:30:04.802Z,1025.48
2017-04-19T02:30:45.391Z,1025.46
2017-04-19T02:31:26.016Z,1025.45
2017-04-19T02:32:06.622Z,1025.49
2017-04-19T02:32:47.232Z,1025.49
2017-04-19T02:33:27.861Z,1025.44
2017-04-19T02:34:08.441Z,1025.52
2017-04-19T02:34:49.020Z,1025.46
2017-04-19T02:35:29.605Z,1025.4
2017-04-19T02:36:10.199Z,1025.48
2017-04-19T02:36:50.811Z,1025.49
2017-04-19T02:37:31.386Z,1025.49
2017-04-19T02:38:11.979Z,1025.44
2017-04-19T02:38:52.571Z,1025.49
2017-04-19T02:39:33.194Z,1025.51
2017-04-19T02:40:13.802Z,1025.45
2017-04-19T02:40:54.392Z,1025.49
2017-04-19T02:41:35.046Z,1025.49
2017-04-19T02:42:15.596Z,1025.48
2017-04-19T02:42:56.173Z,1025.52
2017-04-19T02:43:36.762Z,1025.47
2017-04-19T02:44:17.361Z,1025.51
2017-04-19T02:44:57.932Z,1025.5
2017-04-19T02:45:38.516Z,1025.55
2017-04-19T02:46:19.094Z,1025.54
2017-04-19T02:46:59.676Z,1025.54
2017-04-19T02:47:40.261Z,1025.55
2017-04-19T02:48:20.846Z,1025.52
2017-04-19T02:49:01.435Z,1025.56
2017-04-19T02:49:42.089Z,1025.51
2017-04-19T02:50:22.662Z,1025.55
2017-04-19T02:51:03.236Z,1025.55
2017-04-19T02:51:43.849Z,1025.57
2017-04-19T02:52:24.461Z,1025.57
2017-04-19T02:53:05.088Z,1025.59
2017-04-19T02:53:45.661Z,1025.56
2017-04-19T02:54:26.293Z,1025.6
2017-04-19T02:55:06.948Z,1025.59
2017-04-19T02:55:47.611Z,1025.62
2017-04-19T02:56:28.442Z,1025.67
2017-04-19T02:57:09.048Z,1025.64
2017-04-19T02:57:49.652Z,1025.7
2017-04-19T02:58:30.230Z,1025.72
2017-04-19T02:59:10.805Z,1025.7
2017-04-19T02:59:51.435Z,1025.69
2017-04-19T03:00:32.063Z,1025.67
2017-04-19T03:01:12.638Z,1025.7
2017-04-19T03:01:53.215Z,1025.7
2017-04-19T03:02:33.804Z,1025.65
2017-04-19T03:03:14.401Z,1025.69
2017-04-19T03:03:55.012Z,1025.68
2017-04-19T03:04:35.601Z,1025.74
2017-04-19T03:05:16.183Z,1025.72
2017-04-19T03:05:56.777Z,1025.73
2017-04-19T03:06:37.381Z,1025.74
2017-04-19T03:07:17.997Z,1025.72
2017-04-19T03:07:58.589Z,1025.69
2017-04-19T03:08:39.178Z,1025.78
2017-04-19T03:09:19.763Z,1025.7
2017-04-19T03:10:00.474Z,1025.71
2017-04-19T03:10:41.043Z,1025.73
2017-04-19T03:11:21.659Z,1025.74
2017-04-19T03:12:02.249Z,1025.72
2017-04-19T03:12:42.857Z,1025.73
2017-04-19T03:13:23.500Z,1025.74
2017-04-19T03:14:04.089Z,1025.72
2017-04-19T03:14:44.719Z,1025.74
2017-04-19T03:15:25.473Z,1025.76
2017-04-19T03:16:05.998Z,1025.77
2017-04-19T03:16:46.565Z,1025.78
2017-04-19T03:17:27.144Z,1025.79
2017-04-19T03:18:07.914Z,1025.77
2017-04-19T03:18:48.538Z,1025.78
2017-04-19T03:19:29.126Z,1025.8
2017-04-19T03:20:09.749Z,1025.8
2017-04-19T03:20:50.358Z,1025.83
2017-04-19T03:21:30.986Z,1025.81
2017-04-19T03:22:11.586Z,1025.85
2017-04-19T03:22:52.173Z,1025.83
2017-04-19T03:23:32.748Z,1025.8
2017-04-19T03:24:13.344Z,1025.84
2017-04-19T03:24:53.944Z,1025.85
2017-04-19T03:25:34.549Z,1025.88
2017-04-19T03:26:15.105Z,1025.81
2017-04-19T03:26:55.671Z,1025.84
2017-04-19T03:27:36.251Z,1025.86
2017-04-19T03:28:16.836Z,1025.89
2017-04-19T03:28:57.438Z,1025.8
2017-04-19T03:29:38.026Z,1025.81
2017-04-19T03:30:18.625Z,1025.86
2017-04-19T03:30:59.203Z,1025.9
2017-04-19T03:31:39.791Z,1025.87
2017-04-19T03:32:20.393Z,1025.83
2017-04-19T03:33:01.146Z,1025.84
2017-04-19T03:33:41.733Z,1025.84
2017-04-19T03:34:22.347Z,1025.89
2017-04-19T03:35:02.956Z,1025.89
2017-04-19T03:35:43.565Z,1025.92
2017-04-19T03:36:24.127Z,1025.89
2017-04-19T03:37:04.814Z,1025.85
2017-04-19T03:37:45.400Z,1025.95
2017-04-19T03:38:26.034Z,1025.86
2017-04-19T03:39:06.637Z,1025.92
2017-04-19T03:39:47.264Z,1025.92
2017-04-19T03:40:27.854Z,1025.92
2017-04-19T03:41:08.453Z,1025.95
2017-04-19T03:41:49.046Z,1025.97
2017-04-19T03:42:29.626Z,1025.92
2017-04-19T03:43:10.261Z,1025.95
2017-04-19T03:43:50.888Z,1025.95
2017-04-19T03:44:31.484Z,1025.96
2017-04-19T03:45:12.100Z,1026
2017-04-19T03:45:52.708Z,1026
2017-04-19T03:46:33.289Z,1026.03
2017-04-19T03:47:13.871Z,1026.01
2017-04-19T03:47:54.479Z,1026.03
2017-04-19T03:48:35.078Z,1025.99
2017-04-19T03:49:15.689Z,1026.03
2017-04-19T03:49:56.264Z,1026.02
2017-04-19T03:50:36.854Z,1026.06
2017-04-19T03:51:17.454Z,1026.1
2017-04-19T03:51:58.054Z,1026.06
2017-04-19T03:52:38.660Z,1026.14
2017-04-19T03:53:19.251Z,1026.07
2017-04-19T03:53:59.887Z,1026.05
2017-04-19T03:54:40.492Z,1026.06
2017-04-19T03:55:21.075Z,1026.12
2017-04-19T03:56:01.688Z,1026.1
2017-04-19T03:56:42.267Z,1026.1
2017-04-19T03:57:22.871Z,1026.08
2017-04-19T03:58:03.485Z,1026.1
2017-04-19T03:58:44.105Z,1026.16
2017-04-19T03:59:24.701Z,1026.13
2017-04-19T04:00:12.293Z,1026.17
2017-04-19T04:00:52.882Z,1026.12
2017-04-19T04:01:33.482Z,1026.1
2017-04-19T04:02:14.121Z,1026.15
2017-04-19T04:02:54.725Z,1026.09
2017-04-19T04:03:35.328Z,1026.13
2017-04-19T04:04:15.913Z,1026.13
2017-04-19T04:04:56.502Z,1026.16
2017-04-19T04:07:09.669Z,1026.16
2017-04-19T04:07:50.275Z,1026.16
2017-04-19T04:08:30.870Z,1026.21
2017-04-19T04:09:11.452Z,1026.19
2017-04-19T04:09:52.095Z,1026.23
2017-04-19T04:10:32.678Z,1026.25
2017-04-19T04:11:13.275Z,1026.27
2017-04-19T04:11:53.876Z,1026.25
2017-04-19T04:12:34.482Z,1026.26
2017-04-19T04:13:15.058Z,1026.27
2017-04-19T04:13:55.628Z,1026.22
2017-04-19T04:14:36.219Z,1026.27
2017-04-19T04:15:16.785Z,1026.31
2017-04-19T04:15:57.432Z,1026.26
2017-04-19T04:16:38.051Z,1026.23
2017-04-19T04:17:18.646Z,1026.29
2017-04-19T04:17:59.248Z,1026.28
2017-04-19T04:18:39.845Z,1026.3
2017-04-19T04:19:20.453Z,1026.33
2017-04-19T04:20:01.032Z,1026.34
2017-04-19T04:20:41.604Z,1026.36
2017-04-19T04:21:22.205Z,1026.37
2017-04-19T04:22:02.781Z,1026.42
2017-04-19T04:22:43.432Z,1026.41
2017-04-19T04:23:24.021Z,1026.43
2017-04-19T04:24:04.616Z,1026.37
2017-04-19T04:24:45.242Z,1026.43
2017-04-19T04:25:25.846Z,1026.45
2017-04-19T04:26:06.468Z,1026.44
2017-04-19T04:26:47.057Z,1026.44
2017-04-19T04:27:27.675Z,1026.41
2017-04-19T04:28:08.286Z,1026.44
2017-04-19T04:28:48.919Z,1026.47
2017-04-19T04:29:29.508Z,1026.44
2017-04-19T04:30:10.127Z,1026.43
2017-04-19T04:30:50.735Z,1026.43
2017-04-19T04:31:31.314Z,1026.48
2017-04-19T04:32:11.940Z,1026.48
2017-04-19T04:32:52.573Z,1026.47
2017-04-19T04:33:33.185Z,1026.47
2017-04-19T04:34:13.795Z,1026.52
2017-04-19T04:34:54.360Z,1026.54
2017-04-19T04:35:34.970Z,1026.49
2017-04-19T04:36:15.553Z,1026.49
2017-04-19T04:36:56.126Z,1026.54
2017-04-19T04:37:36.713Z,1026.55
2017-04-19T04:38:17.263Z,1026.53
2017-04-19T04:38:57.845Z,1026.52
2017-04-19T04:39:38.399Z,1026.56
2017-04-19T04:40:18.996Z,1026.52
2017-04-19T04:40:59.581Z,1026.57
2017-04-19T04:41:40.190Z,1026.54
2017-04-19T04:42:20.761Z,1026.51
2017-04-19T04:43:01.379Z,1026.52
2017-04-19T04:43:41.972Z,1026.56
2017-04-19T04:44:22.568Z,1026.51
2017-04-19T04:45:03.153Z,1026.58
2017-04-19T04:45:43.731Z,1026.52
2017-04-19T04:46:24.712Z,1026.54
2017-04-19T04:47:05.328Z,1026.57
2017-04-19T04:47:45.932Z,1026.55
2017-04-19T04:48:26.693Z,1026.59
2017-04-19T04:49:07.389Z,1026.58
2017-04-19T04:49:48.238Z,1026.55
2017-04-19T04:50:28.969Z,1026.59
2017-04-19T04:51:09.551Z,1026.54
2017-04-19T04:51:50.113Z,1026.57
2017-04-19T04:52:30.725Z,1026.58
2017-04-19T04:53:11.323Z,1026.58
2017-04-19T04:53:51.935Z,1026.62
2017-04-19T04:54:32.524Z,1026.6
2017-04-19T04:55:13.137Z,1026.59
2017-04-19T04:55:53.727Z,1026.61
2017-04-19T04:56:34.343Z,1026.62
2017-04-19T04:57:14.931Z,1026.65
2017-04-19T04:57:55.515Z,1026.66
2017-04-19T04:58:36.123Z,1026.65
2017-04-19T04:59:16.743Z,1026.7
2017-04-19T04:59:57.320Z,1026.63
2017-04-19T05:00:37.922Z,1026.7
2017-04-19T05:01:18.550Z,1026.64
2017-04-19T05:01:59.183Z,1026.73
2017-04-19T05:02:40.009Z,1026.72
2017-04-19T05:03:20.567Z,1026.71
2017-04-19T05:04:01.234Z,1026.75
2017-04-19T05:04:41.789Z,1026.8
2017-04-19T05:05:22.356Z,1026.73
2017-04-19T05:06:02.931Z,1026.76
2017-04-19T05:06:43.600Z,1026.81
2017-04-19T05:07:24.183Z,1026.81
2017-04-19T05:08:04.772Z,1026.72
2017-04-19T05:08:45.351Z,1026.78
2017-04-19T05:09:25.933Z,1026.78
2017-04-19T05:10:06.521Z,1026.75
2017-04-19T05:10:47.142Z,1026.78
2017-04-19T05:11:27.747Z,1026.78
2017-04-19T05:12:08.361Z,1026.72
2017-04-19T05:12:48.945Z,1026.77
2017-04-19T05:13:29.539Z,1026.78
2017-04-19T05:14:10.158Z,1026.75
2017-04-19T05:14:50.757Z,1026.8
2017-04-19T05:15:31.347Z,1026.74
2017-04-19T05:16:12.030Z,1026.77
2017-04-19T05:16:52.612Z,1026.74
2017-04-19T05:17:33.358Z,1026.74
2017-04-19T05:18:13.949Z,1026.74
2017-04-19T05:18:54.568Z,1026.75
2017-04-19T05:19:35.155Z,1026.74
2017-04-19T05:20:15.733Z,1026.77
2017-04-19T05:20:56.387Z,1026.77
2017-04-19T05:21:36.985Z,1026.75
2017-04-19T05:22:17.580Z,1026.81
2017-04-19T05:22:58.152Z,1026.77
2017-04-19T05:23:38.750Z,1026.79
2017-04-19T05:24:19.614Z,1026.84
2017-04-19T05:25:00.287Z,1026.79
2017-04-19T05:25:40.876Z,1026.78
2017-04-19T05:26:21.462Z,1026.84
2017-04-19T05:27:02.070Z,1026.81
2017-04-19T05:27:42.661Z,1026.86
2017-04-19T05:28:23.257Z,1026.86
2017-04-19T05:29:03.858Z,1026.83
2017-04-19T05:29:44.495Z,1026.91
2017-04-19T05:30:25.094Z,1026.85
2017-04-19T05:31:05.680Z,1026.86
2017-04-19T05:31:46.275Z,1026.85
2017-04-19T05:32:26.851Z,1026.82
2017-04-19T05:33:07.476Z,1026.84
2017-04-19T05:33:48.056Z,1026.93
2017-04-19T05:34:28.625Z,1026.85
2017-04-19T05:35:09.217Z,1026.89
2017-04-19T05:35:49.904Z,1026.89
2017-04-19T05:36:30.465Z,1026.87
2017-04-19T05:37:11.034Z,1026.9
2017-04-19T05:37:51.608Z,1026.88
2017-04-19T05:38:32.210Z,1026.93
2017-04-19T05:39:12.816Z,1026.96
2017-04-19T05:39:53.408Z,1026.93
2017-04-19T05:40:34.027Z,1026.95
2017-04-19T05:41:14.611Z,1026.9
2017-04-19T05:41:55.201Z,1026.91
2017-04-19T05:42:35.791Z,1026.93
2017-04-19T05:43:16.382Z,1026.91
2017-04-19T05:43:56.984Z,1026.93
2017-04-19T05:44:37.631Z,1026.95
2017-04-19T05:45:18.258Z,1026.95
2017-04-19T05:45:58.912Z,1026.96
2017-04-19T05:46:39.501Z,1026.95
2017-04-19T05:47:20.122Z,1026.98
2017-04-19T05:48:00.734Z,1027
2017-04-19T05:48:41.303Z,1026.98
2017-04-19T05:49:21.887Z,1027.03
2017-04-19T05:50:02.475Z,1027.06
2017-04-19T05:50:43.067Z,1027.01
2017-04-19T05:51:23.643Z,1026.99
2017-04-19T05:52:04.226Z,1026.97
2017-04-19T05:52:44.828Z,1027
2017-04-19T05:53:25.408Z,1027.01
2017-04-19T05:54:05.990Z,1026.99
2017-04-19T05:54:46.579Z,1027.04
2017-04-19T05:55:27.199Z,1027.03
2017-04-19T05:56:07.807Z,1027.04
2017-04-19T05:56:48.464Z,1027.07
2017-04-19T05:57:29.132Z,1027.06
2017-04-19T05:58:09.724Z,1027.03
2017-04-19T05:58:50.403Z,1027.04
2017-04-19T05:59:31.003Z,1027.01
2017-04-19T06:00:11.607Z,1027.03
2017-04-19T06:00:52.184Z,1027.03
2017-04-19T06:01:32.825Z,1027.05
2017-04-19T06:02:13.448Z,1027.05
2017-04-19T06:02:54.106Z,1027.04
2017-04-19T06:03:34.688Z,1027.02
2017-04-19T06:04:15.280Z,1027.03
2017-04-19T06:04:55.853Z,1027.09
2017-04-19T06:05:36.491Z,1027.13
2017-04-19T06:06:17.157Z,1027.09
2017-04-19T06:06:57.769Z,1027.09
2017-04-19T06:07:38.770Z,1027.1
2017-04-19T06:08:19.398Z,1027.14
2017-04-19T06:09:00.044Z,1027.1
2017-04-19T06:09:40.752Z,1027.1
2017-04-19T06:10:21.313Z,1027.13
2017-04-19T06:11:01.933Z,1027.14
2017-04-19T06:11:42.581Z,1027.14
2017-04-19T06:12:23.177Z,1027.15
2017-04-19T06:13:03.787Z,1027.18
2017-04-19T06:13:44.425Z,1027.18
2017-04-19T06:14:25.080Z,1027.13
2017-04-19T06:15:05.675Z,1027.2
2017-04-19T06:15:46.284Z,1027.22
2017-04-19T06:16:26.863Z,1027.18
2017-04-19T06:17:07.514Z,1027.17
2017-04-19T06:17:48.116Z,1027.13
2017-04-19T06:18:28.722Z,1027.18
2017-04-19T06:19:09.339Z,1027.15
2017-04-19T06:19:49.919Z,1027.21
2017-04-19T06:20:30.532Z,1027.23
2017-04-19T06:21:11.110Z,1027.17
2017-04-19T06:21:51.755Z,1027.22
2017-04-19T06:22:32.348Z,1027.29
2017-04-19T06:23:12.990Z,1027.37
2017-04-19T06:23:53.583Z,1027.37
2017-04-19T06:24:34.235Z,1027.44
2017-04-19T06:25:14.831Z,1027.45
2017-04-19T06:25:55.442Z,1027.43
2017-04-19T06:26:36.074Z,1027.41
2017-04-19T06:27:16.660Z,1027.48
2017-04-19T06:27:57.311Z,1027.44
2017-04-19T06:28:37.920Z,1027.52
2017-04-19T06:29:18.497Z,1027.49
2017-04-19T06:29:59.106Z,1027.48
2017-04-19T06:30:39.709Z,1027.56
2017-04-19T06:31:20.287Z,1027.54
2017-04-19T06:32:00.930Z,1027.52
2017-04-19T06:32:41.533Z,1027.61
2017-04-19T06:33:22.121Z,1027.56
2017-04-19T06:34:02.707Z,1027.57
2017-04-19T06:34:43.289Z,1027.65
2017-04-19T06:35:23.909Z,1027.63
2017-04-19T06:36:04.539Z,1027.64
2017-04-19T06:36:45.210Z,1027.68
2017-04-19T06:37:25.808Z,1027.72
2017-04-19T06:38:06.446Z,1027.75
2017-04-19T06:38:47.015Z,1027.71
2017-04-19T06:39:27.617Z,1027.66
2017-04-19T06:40:08.348Z,1027.72
2017-04-19T06:40:48.992Z,1027.66
2017-04-19T06:41:29.608Z,1027.73
2017-04-19T06:42:10.389Z,1027.67
2017-04-19T06:42:51.027Z,1027.68
2017-04-19T06:43:31.702Z,1027.72
2017-04-19T06:44:12.345Z,1027.79
2017-04-19T06:44:52.941Z,1027.72
2017-04-19T06:45:33.588Z,1027.75
2017-04-19T06:46:14.203Z,1027.79
2017-04-19T06:46:54.811Z,1027.79
2017-04-19T06:47:35.443Z,1027.76
2017-04-19T06:48:16.100Z,1027.77
2017-04-19T06:48:56.712Z,1027.81
2017-04-19T06:49:37.391Z,1027.8
2017-04-19T06:50:18.023Z,1027.8
2017-04-19T06:50:58.593Z,1027.79
2017-04-19T06:51:39.312Z,1027.77
2017-04-19T06:52:19.948Z,1027.8
2017-04-19T06:53:00.544Z,1027.85
2017-04-19T06:53:47.478Z,1027.88
2017-04-19T06:54:39.078Z,1027.82
2017-04-19T06:55:19.708Z,1027.94
2017-04-19T06:56:00.293Z,1027.9
2017-04-19T06:56:40.900Z,1027.89
2017-04-19T06:57:21.784Z,1027.9
2017-04-19T06:58:02.398Z,1028.01
2017-04-19T06:58:43.048Z,1027.94
2017-04-19T06:59:23.676Z,1027.92
2017-04-19T07:00:04.333Z,1027.89
2017-04-19T07:00:44.934Z,1027.97
2017-04-19T07:01:25.561Z,1027.98
2017-04-19T07:02:06.513Z,1028
2017-04-19T07:02:47.192Z,1027.94
2017-04-19T07:03:27.839Z,1028
2017-04-19T07:04:08.450Z,1028
2017-04-19T07:04:49.066Z,1028.04
2017-04-19T07:05:29.712Z,1028.01
2017-04-19T07:06:10.345Z,1028.02
2017-04-19T07:06:51.013Z,1028.03
2017-04-19T07:07:31.623Z,1028.04
2017-04-19T07:08:12.512Z,1027.99
2017-04-19T07:08:53.144Z,1028.01
2017-04-19T07:09:33.799Z,1028.07
2017-04-19T07:10:14.425Z,1028.13
2017-04-19T07:10:55.021Z,1027.99
2017-04-19T07:11:35.636Z,1027.97
2017-04-19T07:12:16.277Z,1028.04
2017-04-19T07:12:56.969Z,1027.96
2017-04-19T07:13:37.597Z,1027.97
2017-04-19T07:14:18.306Z,1028.01
2017-04-19T07:14:59.082Z,1028.03
2017-04-19T07:15:39.794Z,1028
2017-04-19T07:16:20.421Z,1028.06
2017-04-19T07:17:01.196Z,1028.06
2017-04-19T07:17:41.785Z,1028.04
2017-04-19T07:18:22.401Z,1028.07
2017-04-19T07:19:03.041Z,1028.04
2017-04-19T07:19:43.650Z,1028.05
2017-04-19T07:20:24.366Z,1027.96
2017-04-19T07:21:04.912Z,1028.1
2017-04-19T07:21:45.520Z,1028
2017-04-19T07:22:26.215Z,1027.95
2017-04-19T07:23:06.892Z,1027.91
2017-04-19T07:23:47.501Z,1027.94
2017-04-19T07:24:28.184Z,1027.86
2017-04-19T07:25:08.805Z,1028.07
2017-04-19T07:25:49.450Z,1028.04
2017-04-19T07:26:30.066Z,1027.91
2017-04-19T07:27:10.703Z,1027.89
2017-04-19T07:27:51.347Z,1027.95
2017-04-19T07:28:31.901Z,1027.81
2017-04-19T07:29:12.616Z,1027.93
2017-04-19T07:29:54.980Z,1027.95
2017-04-19T07:30:36.438Z,1027.92
2017-04-19T07:31:17.551Z,1027.95
2017-04-19T07:31:58.163Z,1027.95
2017-04-19T07:32:38.782Z,1027.85
2017-04-19T07:33:19.403Z,1027.85
2017-04-19T07:34:00.076Z,1027.86
2017-04-19T07:34:40.780Z,1027.9
2017-04-19T07:35:21.395Z,1027.92
2017-04-19T07:36:02.001Z,1027.83
2017-04-19T07:36:42.598Z,1028.08
2017-04-19T07:37:23.232Z,1027.84
2017-04-19T07:38:03.822Z,1027.82
2017-04-19T07:38:44.438Z,1027.83
2017-04-19T07:39:25.037Z,1027.79
2017-04-19T07:40:05.658Z,1027.89
2017-04-19T07:40:46.281Z,1028.05
2017-04-19T07:41:26.910Z,1028.03
2017-04-19T07:42:07.553Z,1027.92
2017-04-19T07:42:48.171Z,1027.99
2017-04-19T07:43:28.830Z,1028.08
2017-04-19T07:44:09.515Z,1027.91
2017-04-19T07:44:50.160Z,1028.03
2017-04-19T07:45:30.862Z,1028.14
2017-04-19T07:46:11.476Z,1028.04
2017-04-19T07:46:52.154Z,1028.1
2017-04-19T07:47:32.754Z,1028.02
2017-04-19T07:48:13.340Z,1028.14
2017-04-19T07:48:53.951Z,1028.13
2017-04-19T07:49:34.578Z,1028.23
2017-04-19T07:50:15.278Z,1028.18
2017-04-19T07:50:56.076Z,1028.19
2017-04-19T07:51:36.642Z,1028.2
2017-04-19T07:52:17.300Z,1028.25
2017-04-19T07:52:57.917Z,1028.13
2017-04-19T07:53:38.528Z,1027.99
2017-04-19T07:54:19.155Z,1028.04
2017-04-19T07:54:59.779Z,1028.09
2017-04-19T07:55:40.398Z,1028.15
2017-04-19T07:56:21.005Z,1028.21
2017-04-19T07:57:01.607Z,1028.17
2017-04-19T07:57:42.227Z,1028.2
2017-04-19T07:58:22.865Z,1028.26
2017-04-19T07:59:03.484Z,1028.25
2017-04-19T07:59:44.144Z,1028.15
2017-04-19T08:00:24.739Z,1028.21
2017-04-19T08:01:05.454Z,1028.21
2017-04-19T08:01:46.066Z,1028.25
2017-04-19T08:02:26.668Z,1028.27
2017-04-19T08:03:07.355Z,1028.13
2017-04-19T08:03:47.997Z,1028.26
2017-04-19T08:04:28.591Z,1028.19
2017-04-19T08:05:09.198Z,1028.18
2017-04-19T08:05:49.821Z,1028.16
2017-04-19T08:06:30.453Z,1028.23
2017-04-19T08:07:11.130Z,1028.16
2017-04-19T08:07:51.792Z,1028.25
2017-04-19T08:08:32.427Z,1028.24
2017-04-19T08:09:13.037Z,1028.19
2017-04-19T08:09:53.665Z,1028.19
2017-04-19T08:10:34.294Z,1028.19
2017-04-19T08:11:15.009Z,1028.17
2017-04-19T08:11:55.626Z,1028.13
2017-04-19T08:12:36.279Z,1028.14
2017-04-19T08:13:16.895Z,1028.1
2017-04-19T08:13:57.527Z,1028.2
2017-04-19T08:14:38.140Z,1028.16
2017-04-19T08:15:18.765Z,1028.17